Portada
METAR-TAF:

METAR-TAF

Aeroports :

Hakodate, Japó

latitud: 41-46N, longitud: 140-49E, altitud: 33 m

Observació

L'informe es va fer fa 45 minuts, a les 06:00 UTC
Vent 7 kt del Est/Sud-Est, variant entre Est i Sud/Sud-Est
Temperatura 19°C
Humitat 60%
Pressió 1022 hPa
Visibilitat 10 km o més
Escasses núvols a una alçada de 4500 ft
Cel ennuvolat

METAR: RJCH 210600Z 12007KT 100V160 9999 FEW045 BKN/// 19/11 Q1022

Hora: 15:45 (06:45 UTC)

Pronòstic

L'informe es va fer fa 1 hora i 33 minuts, a les 05:12 UTC
Pronòstic vàlid del 21 a les 06 UTC al 22 a les 12 UTC
Vent 7 kt del Est/Sud-Est
Visibilitat 10 km o més
Escasses núvols a una alçada de 3000 ft
Evolucionant progressivament
l' 21 a les 21 UTC al 22 a les 00 UTC
Vent 6 kt del Sud-Oest
Evolucionant progressivament
l' 22 a les 09 UTC al 22 a les 12 UTC
Vent 6 kt del Nord-Est

TAF: RJCH 210512Z 2106/2212 11007KT 9999 FEW030 BECMG 2121/2200 23006KT BECMG 2209/2212 05006KT

Observacions i pronòstics meteorològics de més de 4000 aeroports (METAR i TAF).

Les estacions disponibles són els punts grocs i vermells al mapa.

Posi el ratolí al punt desitjat per veure el nom de l'estació.

Feu clic per veure les observacions i els pronòstics meteorològics.

Per canviar el mapa: feu clic els botons verds amb una creu de color negre per apropar; al botó verd amb un guió per allunyar la imatge; o en les fletxes verdes per a mapes adjacents.


METAR-TAF: